Time;durP1;ratioP1;P1;durP2;ratioP2;P2;SDS_P1;SDS_P2;PMS_P1;PMS_P2;Temp;Humidity;BMP_temperature;BMP_pressure;BME280_temperature;BME280_humidity;BME280_pressure;Samples;Min_cycle;Max_cycle;Signal;HPM_P1;HPM_P2
2022/07/31 00:00:39;;;;;;;0.40;0.40;;;18.30;99.90;;;;;;5101394;28;20723;-67
2022/07/31 00:03:27;;;;;;;0.40;0.40;;;18.30;99.90;;;;;;5102252;28;20222;-67
2022/07/31 00:06:17;;;;;;;0.40;0.40;;;18.30;99.90;;;;;;5102942;28;20212;-67
2022/07/31 00:09:06;;;;;;;0.40;0.40;;;18.20;99.90;;;;;;5104197;28;20204;-67
2022/07/31 00:12:14;;;;;;;0.40;0.40;;;18.20;99.90;;;;;;5103960;28;20292;-67
2022/07/31 00:15:06;;;;;;;0.40;0.40;;;18.10;99.90;;;;;;5101141;28;20204;-67
2022/07/31 00:17:54;;;;;;;0.40;0.40;;;18.00;99.90;;;;;;5099364;28;20680;-67
2022/07/31 00:20:43;;;;;;;0.40;0.40;;;17.90;99.90;;;;;;5096090;28;20225;-67
2022/07/31 00:23:31;;;;;;;0.40;0.40;;;17.90;99.90;;;;;;5099307;28;20630;-67
2022/07/31 00:26:19;;;;;;;0.40;0.40;;;17.80;99.90;;;;;;5096280;28;20740;-68
2022/07/31 00:29:07;;;;;;;0.40;0.40;;;17.80;99.90;;;;;;5094391;28;20200;-67
2022/07/31 00:31:59;;;;;;;0.40;0.40;;;17.80;99.90;;;;;;5097881;28;20228;-67
2022/07/31 00:34:47;;;;;;;0.40;0.40;;;17.80;99.90;;;;;;5103069;28;20200;-67
2022/07/31 00:37:36;;;;;;;0.40;0.40;;;17.80;99.90;;;;;;5102772;28;20196;-67
2022/07/31 00:40:27;;;;;;;0.40;0.40;;;17.80;99.90;;;;;;5102419;28;20595;-66
2022/07/31 00:43:17;;;;;;;0.40;0.40;;;17.80;99.90;;;;;;5104148;28;20200;-67
2022/07/31 00:46:05;;;;;;;0.40;0.40;;;17.70;99.90;;;;;;5100715;28;20676;-67
2022/07/31 00:49:03;;;;;;;0.40;0.40;;;17.70;99.90;;;;;;5103030;28;20279;-67
2022/07/31 00:51:51;;;;;;;0.40;0.40;;;17.70;99.90;;;;;;5103307;28;20211;-67
2022/07/31 00:54:40;;;;;;;0.40;0.40;;;17.60;99.90;;;;;;5102591;28;20202;-67
2022/07/31 00:57:28;;;;;;;0.40;0.40;;;17.60;99.90;;;;;;5103458;28;20550;-67
2022/07/31 01:00:16;;;;;;;0.40;0.40;;;17.50;99.90;;;;;;5104464;28;20273;-67
2022/07/31 01:03:04;;;;;;;0.40;0.40;;;17.50;99.90;;;;;;5103822;28;20207;-67
2022/07/31 01:05:54;;;;;;;0.40;0.40;;;17.50;99.90;;;;;;5094074;28;20623;-67
2022/07/31 01:08:42;;;;;;;0.50;0.50;;;17.40;99.90;;;;;;5084670;28;20250;-67
2022/07/31 01:11:38;;;;;;;0.40;0.40;;;17.40;99.90;;;;;;5083264;28;20224;-67
2022/07/31 01:14:31;;;;;;;0.40;0.40;;;17.30;99.90;;;;;;5085148;28;20279;-67
2022/07/31 01:17:22;;;;;;;0.40;0.40;;;17.30;99.90;;;;;;5091486;28;20231;-67
2022/07/31 01:20:11;;;;;;;0.50;0.50;;;17.20;99.90;;;;;;5090259;28;20728;-67
2022/07/31 01:23:37;;;;;;;0.60;0.60;;;17.20;99.90;;;;;;5085132;28;20205;-67
2022/07/31 01:26:43;;;;;;;0.50;0.50;;;17.10;99.90;;;;;;5086876;28;20205;-67
2022/07/31 01:29:37;;;;;;;0.40;0.40;;;17.10;99.90;;;;;;5086758;28;20216;-67
2022/07/31 01:32:28;;;;;;;0.40;0.40;;;17.10;99.90;;;;;;5085387;28;20227;-67
2022/07/31 01:35:22;;;;;;;0.40;0.40;;;17.10;99.90;;;;;;5084453;28;20262;-67
2022/07/31 01:38:14;;;;;;;0.60;0.60;;;17.00;99.90;;;;;;5086058;28;20200;-67
2022/07/31 01:41:07;;;;;;;0.73;0.73;;;16.90;99.90;;;;;;5082799;28;20228;-67
2022/07/31 01:43:57;;;;;;;0.40;0.40;;;16.90;99.90;;;;;;5080610;28;20260;-67
2022/07/31 01:46:48;;;;;;;0.50;0.50;;;17.00;99.90;;;;;;5079655;28;20201;-67
2022/07/31 01:49:38;;;;;;;0.40;0.40;;;16.90;99.90;;;;;;5081784;28;20220;-67
2022/07/31 01:52:29;;;;;;;0.40;0.40;;;16.80;99.90;;;;;;5082860;28;20234;-67
2022/07/31 01:55:18;;;;;;;0.50;0.50;;;16.60;99.90;;;;;;5083776;28;20219;-67
2022/07/31 01:58:07;;;;;;;0.40;0.40;;;16.70;99.90;;;;;;5082615;28;20629;-67
2022/07/31 02:00:57;;;;;;;0.40;0.40;;;16.70;99.90;;;;;;5082393;28;20225;-67
2022/07/31 02:03:49;;;;;;;0.40;0.40;;;16.70;99.90;;;;;;5083006;28;20201;-67
2022/07/31 02:06:46;;;;;;;0.40;0.40;;;16.80;99.90;;;;;;5083074;28;20219;-67
2022/07/31 02:09:35;;;;;;;0.95;0.90;;;16.70;99.90;;;;;;5083097;28;20232;-66
2022/07/31 02:12:24;;;;;;;0.40;0.40;;;16.70;99.90;;;;;;5083874;28;20200;-67
2022/07/31 02:15:21;;;;;;;0.57;0.57;;;16.70;99.90;;;;;;5083266;28;20200;-67
2022/07/31 02:18:11;;;;;;;0.40;0.40;;;16.70;99.90;;;;;;5084942;28;20673;-67
2022/07/31 02:21:00;;;;;;;0.40;0.40;;;16.60;99.90;;;;;;5084237;28;20251;-67
2022/07/31 02:23:49;;;;;;;0.40;0.40;;;16.60;99.90;;;;;;5084282;28;20226;-67
2022/07/31 02:26:40;;;;;;;0.50;0.50;;;16.70;99.90;;;;;;5086274;28;20201;-67
2022/07/31 02:29:31;;;;;;;0.40;0.40;;;16.60;99.90;;;;;;5082142;28;20224;-67
2022/07/31 02:32:20;;;;;;;0.40;0.40;;;16.60;99.90;;;;;;5080432;28;20197;-67
2022/07/31 02:35:09;;;;;;;0.47;0.47;;;16.40;99.90;;;;;;5079945;28;20229;-67
2022/07/31 02:37:59;;;;;;;0.47;0.47;;;16.60;99.90;;;;;;5076495;28;20766;-67
2022/07/31 02:40:49;;;;;;;0.40;0.40;;;16.60;99.90;;;;;;5082008;28;20790;-67
2022/07/31 02:43:38;;;;;;;0.40;0.40;;;16.50;99.90;;;;;;5080758;28;20208;-67
2022/07/31 02:46:26;;;;;;;0.40;0.40;;;16.50;99.90;;;;;;5081823;28;20258;-67
2022/07/31 02:49:15;;;;;;;0.40;0.40;;;16.50;99.90;;;;;;5080841;28;20197;-67
2022/07/31 02:52:05;;;;;;;0.40;0.40;;;16.40;99.90;;;;;;5080621;28;20200;-67
2022/07/31 02:54:57;;;;;;;0.40;0.40;;;16.40;99.90;;;;;;5081432;28;20205;-67
2022/07/31 02:57:46;;;;;;;0.40;0.40;;;16.40;99.90;;;;;;5076491;28;20250;-67
2022/07/31 03:00:35;;;;;;;0.40;0.40;;;16.30;99.90;;;;;;5076783;28;20716;-67
2022/07/31 03:03:23;;;;;;;0.40;0.40;;;16.30;99.90;;;;;;5077671;28;20627;-67
2022/07/31 03:06:11;;;;;;;0.40;0.40;;;16.30;99.90;;;;;;5079177;28;20205;-66
2022/07/31 03:08:59;;;;;;;0.50;0.50;;;16.30;99.90;;;;;;5081363;28;20213;-66
2022/07/31 03:11:49;;;;;;;0.50;0.50;;;16.20;99.90;;;;;;5079998;28;20258;-66
2022/07/31 03:14:37;;;;;;;0.40;0.40;;;16.30;99.90;;;;;;5079820;28;20192;-67
2022/07/31 03:17:26;;;;;;;0.40;0.40;;;16.30;99.90;;;;;;5079961;28;20547;-67
2022/07/31 03:20:28;;;;;;;0.40;0.40;;;16.20;99.90;;;;;;5079384;28;20224;-67
2022/07/31 03:23:18;;;;;;;0.40;0.40;;;16.20;99.90;;;;;;5082028;28;20247;-67
2022/07/31 03:26:06;;;;;;;0.40;0.40;;;16.20;99.90;;;;;;5081908;28;20220;-67
2022/07/31 03:28:56;;;;;;;0.40;0.40;;;16.10;99.90;;;;;;5081126;28;20226;-67
2022/07/31 03:31:44;;;;;;;0.40;0.40;;;16.20;99.90;;;;;;5082055;28;20196;-67
2022/07/31 03:34:32;;;;;;;0.40;0.40;;;16.10;99.90;;;;;;5082379;28;20204;-67
2022/07/31 03:37:20;;;;;;;0.40;0.40;;;16.10;99.90;;;;;;5083435;28;20200;-67
2022/07/31 03:40:09;;;;;;;0.43;0.43;;;16.10;99.90;;;;;;5082610;28;20484;-67
2022/07/31 03:42:59;;;;;;;0.40;0.40;;;16.10;99.90;;;;;;5082762;28;20266;-67
2022/07/31 03:45:50;;;;;;;0.40;0.40;;;16.10;99.90;;;;;;5081505;28;20769;-67
2022/07/31 03:48:38;;;;;;;0.40;0.40;;;16.10;99.90;;;;;;5081785;28;20201;-67
2022/07/31 03:51:26;;;;;;;0.40;0.40;;;16.20;99.90;;;;;;5080434;28;20220;-67
2022/07/31 03:54:14;;;;;;;0.50;0.50;;;16.10;99.90;;;;;;5080896;28;20201;-67
2022/07/31 03:57:03;;;;;;;0.40;0.40;;;16.20;99.90;;;;;;5081405;28;20201;-67
2022/07/31 03:59:55;;;;;;;0.40;0.40;;;16.20;99.90;;;;;;5081354;28;20221;-67
2022/07/31 04:02:45;;;;;;;0.40;0.40;;;16.10;99.90;;;;;;5082405;28;20212;-67
2022/07/31 04:05:34;;;;;;;0.40;0.40;;;16.20;99.90;;;;;;5082571;28;20265;-67
2022/07/31 04:08:22;;;;;;;0.40;0.40;;;16.20;99.90;;;;;;5085375;28;20196;-67
2022/07/31 04:11:10;;;;;;;0.50;0.50;;;16.20;99.90;;;;;;5114842;22;20255;-63
2022/07/31 04:13:58;;;;;;;0.50;0.50;;;16.30;99.90;;;;;;5097466;28;20196;-63
2022/07/31 04:16:46;;;;;;;0.50;0.50;;;16.30;99.90;;;;;;5097004;28;20196;-63
2022/07/31 04:19:35;;;;;;;0.50;0.50;;;16.30;99.90;;;;;;5097088;28;20196;-62
2022/07/31 04:22:24;;;;;;;0.50;0.50;;;16.10;99.90;;;;;;5096694;28;20723;-62
2022/07/31 04:25:12;;;;;;;0.40;0.40;;;16.40;99.90;;;;;;5098540;28;20199;-63
2022/07/31 04:28:00;;;;;;;0.50;0.50;;;16.40;99.90;;;;;;5096912;28;20203;-62
2022/07/31 04:30:48;;;;;;;0.50;0.50;;;16.30;99.90;;;;;;5096046;28;20216;-63
2022/07/31 04:33:36;;;;;;;0.50;0.50;;;16.50;99.90;;;;;;5097463;28;20200;-62
2022/07/31 04:36:37;;;;;;;0.40;0.40;;;16.50;99.90;;;;;;5095123;28;20287;-64
2022/07/31 04:39:25;;;;;;;0.52;0.52;;;16.70;99.90;;;;;;5095432;28;20200;-63
2022/07/31 04:42:14;;;;;;;0.40;0.40;;;16.60;99.90;;;;;;5095861;28;20199;-63
2022/07/31 04:45:02;;;;;;;0.88;0.88;;;16.60;99.90;;;;;;5096547;28;20256;-63
2022/07/31 04:47:50;;;;;;;0.40;0.40;;;16.60;99.90;;;;;;5097928;28;20653;-63
2022/07/31 04:50:38;;;;;;;0.70;0.70;;;16.70;99.90;;;;;;5095663;28;20223;-63
2022/07/31 04:53:28;;;;;;;0.50;0.50;;;16.60;99.90;;;;;;5096144;28;20281;-62
2022/07/31 04:56:34;;;;;;;0.50;0.50;;;16.80;99.90;;;;;;5095670;28;20236;-64
2022/07/31 04:59:23;;;;;;;0.50;0.50;;;16.80;99.90;;;;;;5094931;28;20744;-64
2022/07/31 05:02:31;;;;;;;0.50;0.50;;;17.00;99.90;;;;;;5094861;28;20223;-63
2022/07/31 05:05:19;;;;;;;0.60;0.60;;;17.00;99.90;;;;;;5094781;28;20196;-64
2022/07/31 05:08:07;;;;;;;0.60;0.60;;;17.10;99.90;;;;;;5096122;28;20238;-64
2022/07/31 05:14:04;;;;;;;0.45;0.45;;;17.20;99.90;;;;;;5095182;28;20224;-64
2022/07/31 05:16:52;;;;;;;0.50;0.50;;;17.30;99.90;;;;;;5093157;28;20196;-64
2022/07/31 05:19:40;;;;;;;0.82;0.82;;;17.40;99.90;;;;;;5093912;28;20678;-65
2022/07/31 05:22:29;;;;;;;0.50;0.50;;;17.60;99.90;;;;;;5095338;28;20723;-63
2022/07/31 05:25:17;;;;;;;0.60;0.60;;;17.50;99.90;;;;;;5096066;28;20196;-62
2022/07/31 05:28:06;;;;;;;0.50;0.50;;;17.50;99.90;;;;;;5095121;28;20501;-64
2022/07/31 05:30:56;;;;;;;0.50;0.50;;;17.60;99.90;;;;;;5093597;28;20220;-63
2022/07/31 05:33:45;;;;;;;1.27;1.25;;;17.70;99.90;;;;;;5093980;28;20297;-65
2022/07/31 05:36:33;;;;;;;0.85;0.85;;;17.80;99.90;;;;;;5093566;28;20285;-63
2022/07/31 05:39:21;;;;;;;0.50;0.50;;;17.90;99.90;;;;;;5094028;28;20207;-64
2022/07/31 05:42:09;;;;;;;0.75;0.75;;;18.00;99.90;;;;;;5093689;28;20238;-64
2022/07/31 05:44:59;;;;;;;1.08;1.00;;;18.10;99.90;;;;;;5093515;28;20741;-64
2022/07/31 05:47:47;;;;;;;0.90;0.90;;;18.10;99.90;;;;;;5093665;28;20601;-66
2022/07/31 05:50:35;;;;;;;1.70;1.52;;;18.30;99.90;;;;;;5093825;28;20251;-65
2022/07/31 05:53:23;;;;;;;0.50;0.50;;;18.20;99.90;;;;;;5094315;28;20216;-64
2022/07/31 05:56:11;;;;;;;5.15;4.85;;;18.30;99.90;;;;;;5093416;28;20280;-65
2022/07/31 05:59:00;;;;;;;0.43;0.43;;;18.30;99.90;;;;;;5093707;28;20192;-65
2022/07/31 06:01:49;;;;;;;0.40;0.40;;;18.40;99.90;;;;;;5083539;28;20310;-65
2022/07/31 06:04:37;;;;;;;1.58;1.58;;;18.50;99.90;;;;;;5090169;28;20203;-69
2022/07/31 06:07:25;;;;;;;0.95;0.82;;;18.50;99.90;;;;;;5092628;28;20585;-66
2022/07/31 06:10:13;;;;;;;1.00;1.00;;;18.70;99.90;;;;;;5092197;28;20281;-65
2022/07/31 06:13:01;;;;;;;4.97;1.38;;;18.60;99.90;;;;;;5093018;28;20212;-65
2022/07/31 06:15:49;;;;;;;0.80;0.80;;;18.60;99.90;;;;;;5092022;28;20203;-65
2022/07/31 06:18:39;;;;;;;0.93;0.93;;;18.70;99.90;;;;;;5092991;28;20230;-66
2022/07/31 06:21:27;;;;;;;0.60;0.50;;;18.90;99.90;;;;;;5076237;28;20360;-69
2022/07/31 06:24:17;;;;;;;0.68;0.68;;;19.00;99.90;;;;;;5071620;28;20750;-68
2022/07/31 06:27:06;;;;;;;0.40;0.40;;;19.00;99.90;;;;;;5072189;28;20308;-67
2022/07/31 06:30:00;;;;;;;0.40;0.40;;;19.10;99.90;;;;;;5071344;28;20224;-68
2022/07/31 06:32:48;;;;;;;0.65;0.65;;;19.30;99.90;;;;;;5072620;28;20244;-65
2022/07/31 06:35:38;;;;;;;0.50;0.50;;;19.40;99.90;;;;;;5071426;28;20244;-65
2022/07/31 06:38:29;;;;;;;0.50;0.50;;;19.40;99.90;;;;;;5071532;28;20205;-69
2022/07/31 06:44:20;;;;;;;2.17;1.65;;;19.60;99.90;;;;;;5072422;28;20200;-64
2022/07/31 06:47:08;;;;;;;0.40;0.40;;;19.70;99.90;;;;;;5072212;28;20278;-67
2022/07/31 06:50:04;;;;;;;1.70;0.98;;;19.80;99.90;;;;;;5072236;28;20275;-66
2022/07/31 06:52:53;;;;;;;0.40;0.40;;;19.90;99.90;;;;;;5072895;28;20212;-68
2022/07/31 06:55:41;;;;;;;0.40;0.40;;;20.00;99.90;;;;;;5071129;28;20242;-65
2022/07/31 06:58:32;;;;;;;0.52;0.52;;;20.10;99.90;;;;;;5071824;28;20249;-65
2022/07/31 07:01:20;;;;;;;0.50;0.50;;;20.10;99.90;;;;;;5070855;28;20228;-64
2022/07/31 07:04:08;;;;;;;0.52;0.52;;;20.20;99.90;;;;;;5071120;28;20575;-65
2022/07/31 07:06:56;;;;;;;2.40;1.60;;;20.30;99.90;;;;;;5070988;28;20778;-65
2022/07/31 07:09:45;;;;;;;0.80;0.80;;;20.50;99.90;;;;;;5070894;28;20193;-63
2022/07/31 07:12:33;;;;;;;1.73;1.55;;;20.50;99.90;;;;;;5070469;28;20702;-65
2022/07/31 07:15:21;;;;;;;2.03;1.92;;;20.60;99.90;;;;;;5071359;28;20197;-65
2022/07/31 07:18:09;;;;;;;0.40;0.40;;;20.60;99.90;;;;;;5070215;28;20205;-65
2022/07/31 07:20:58;;;;;;;1.05;1.05;;;20.70;99.90;;;;;;5070369;28;20220;-65
2022/07/31 07:23:46;;;;;;;1.35;1.33;;;20.70;99.90;;;;;;5071535;28;20196;-65
2022/07/31 07:26:35;;;;;;;1.40;1.30;;;20.80;99.90;;;;;;5070755;28;20208;-64
2022/07/31 07:29:23;;;;;;;1.67;1.58;;;20.80;99.90;;;;;;5070186;28;20196;-66
2022/07/31 07:32:13;;;;;;;0.50;0.50;;;20.90;99.90;;;;;;5070642;28;20667;-65
2022/07/31 07:35:02;;;;;;;0.40;0.40;;;21.10;99.90;;;;;;5072316;28;20255;-64
2022/07/31 07:37:51;;;;;;;0.50;0.50;;;21.00;99.90;;;;;;5069782;28;20208;-65
2022/07/31 07:40:40;;;;;;;0.77;0.77;;;21.10;99.90;;;;;;5070569;28;20287;-66
2022/07/31 07:43:29;;;;;;;1.73;1.63;;;21.20;99.90;;;;;;5074066;28;20304;-66
2022/07/31 07:46:17;;;;;;;0.93;0.93;;;21.30;99.90;;;;;;5074843;28;20232;-67
2022/07/31 07:49:05;;;;;;;0.55;0.55;;;21.40;99.90;;;;;;5074780;28;20211;-65
2022/07/31 07:51:53;;;;;;;0.50;0.50;;;21.60;99.90;;;;;;5074446;28;20756;-64
2022/07/31 07:54:47;;;;;;;1.60;1.50;;;21.70;99.90;;;;;;5074853;28;20220;-66
2022/07/31 07:57:36;;;;;;;0.70;0.70;;;21.80;99.90;;;;;;5087740;28;20207;-65
2022/07/31 08:00:25;;;;;;;0.40;0.40;;;22.00;99.90;;;;;;5095107;28;20226;-66
2022/07/31 08:03:13;;;;;;;1.73;1.58;;;22.20;99.90;;;;;;5095383;28;20204;-66
2022/07/31 08:06:22;;;;;;;2.65;2.53;;;22.30;99.90;;;;;;5095963;28;20683;-67
2022/07/31 08:09:10;;;;;;;0.50;0.50;;;22.60;99.90;;;;;;5095115;28;20210;-69
2022/07/31 08:11:58;;;;;;;0.82;0.82;;;22.80;99.90;;;;;;5094541;28;20235;-66
2022/07/31 08:14:46;;;;;;;0.40;0.40;;;22.80;99.90;;;;;;5095004;28;20231;-64
2022/07/31 08:17:35;;;;;;;1.15;1.15;;;23.00;99.90;;;;;;5095733;28;20208;-64
2022/07/31 08:20:24;;;;;;;0.40;0.40;;;23.30;99.90;;;;;;5094770;28;20219;-63
2022/07/31 08:23:12;;;;;;;0.80;0.80;;;23.50;99.90;;;;;;5095733;28;20212;-64
2022/07/31 08:26:07;;;;;;;0.63;0.63;;;23.70;99.90;;;;;;5096487;28;20289;-65
2022/07/31 08:28:55;;;;;;;3.08;2.88;;;24.00;99.90;;;;;;5097050;28;20291;-63
2022/07/31 08:31:43;;;;;;;2.15;1.30;;;24.10;99.90;;;;;;5096782;28;20220;-64
2022/07/31 08:34:38;;;;;;;2.95;2.65;;;24.30;99.90;;;;;;5095096;28;20228;-63
2022/07/31 08:37:29;;;;;;;0.40;0.40;;;24.40;99.90;;;;;;5095380;28;20195;-64
2022/07/31 08:40:38;;;;;;;0.70;0.70;;;24.30;99.90;;;;;;5096338;28;20580;-64
2022/07/31 08:43:30;;;;;;;0.50;0.50;;;24.40;99.90;;;;;;5094812;28;20204;-65
2022/07/31 08:46:39;;;;;;;2.15;1.65;;;24.30;99.90;;;;;;5096197;28;20281;-64
2022/07/31 08:49:30;;;;;;;1.52;1.17;;;24.20;99.90;;;;;;5093751;28;20249;-63
2022/07/31 08:52:22;;;;;;;0.40;0.40;;;24.00;99.90;;;;;;5094288;28;20215;-65
2022/07/31 08:55:11;;;;;;;4.35;1.30;;;23.80;99.90;;;;;;5094229;28;20277;-66
2022/07/31 08:58:19;;;;;;;0.90;0.90;;;23.60;99.90;;;;;;5075708;28;20406;-65
2022/07/31 09:01:08;;;;;;;1.92;0.75;;;23.40;99.90;;;;;;5073381;28;20264;-66
2022/07/31 09:03:58;;;;;;;0.40;0.40;;;23.40;99.90;;;;;;5073862;28;20689;-64
2022/07/31 09:06:46;;;;;;;1.30;1.10;;;23.30;99.90;;;;;;5072560;28;20699;-66
2022/07/31 09:09:35;;;;;;;2.78;2.58;;;23.40;99.90;;;;;;5072238;28;20200;-66
2022/07/31 09:12:38;;;;;;;0.60;0.60;;;23.40;99.90;;;;;;5073764;28;20580;-68
2022/07/31 09:15:28;;;;;;;0.90;0.90;;;23.30;99.90;;;;;;5072828;28;20269;-64
2022/07/31 09:18:18;;;;;;;0.70;0.70;;;23.30;99.90;;;;;;5073138;28;20200;-66
2022/07/31 09:21:07;;;;;;;0.55;0.55;;;23.40;99.90;;;;;;5072302;28;20708;-65
2022/07/31 09:23:55;;;;;;;0.60;0.60;;;23.50;99.90;;;;;;5073958;28;20298;-66
2022/07/31 09:26:44;;;;;;;0.73;0.73;;;23.70;99.90;;;;;;5073154;28;20239;-65
2022/07/31 09:29:34;;;;;;;0.40;0.40;;;23.80;99.90;;;;;;5073518;28;20200;-64
2022/07/31 09:32:22;;;;;;;1.08;0.98;;;23.80;99.90;;;;;;5074418;28;20212;-65
2022/07/31 09:35:12;;;;;;;0.60;0.60;;;24.00;99.90;;;;;;5073360;28;20217;-64
2022/07/31 09:38:00;;;;;;;0.98;0.98;;;24.00;99.90;;;;;;5075116;28;20212;-64
2022/07/31 09:40:51;;;;;;;0.40;0.40;;;24.20;99.90;;;;;;5072495;28;20216;-64
2022/07/31 09:43:54;;;;;;;0.60;0.60;;;24.20;99.90;;;;;;5073007;28;20207;-65
2022/07/31 09:46:45;;;;;;;1.48;1.15;;;24.20;99.90;;;;;;5072446;28;20270;-64
2022/07/31 09:49:34;;;;;;;1.77;1.73;;;24.30;99.90;;;;;;5072917;28;20576;-66
2022/07/31 09:52:23;;;;;;;1.08;1.08;;;24.30;99.90;;;;;;5073932;28;20196;-65
2022/07/31 09:55:14;;;;;;;0.50;0.50;;;24.30;99.90;;;;;;5074379;28;20217;-65
2022/07/31 09:58:04;;;;;;;0.50;0.50;;;24.40;99.90;;;;;;5089414;28;20569;-63
2022/07/31 10:00:55;;;;;;;0.40;0.40;;;24.50;99.90;;;;;;5094479;28;20220;-64
2022/07/31 10:03:49;;;;;;;0.40;0.40;;;24.40;99.90;;;;;;5094213;28;20200;-65
2022/07/31 10:06:38;;;;;;;0.77;0.77;;;24.10;99.90;;;;;;5093487;28;20192;-65
2022/07/31 10:09:28;;;;;;;1.95;1.85;;;24.70;99.90;;;;;;5093189;28;20226;-64
2022/07/31 10:12:19;;;;;;;1.15;1.05;;;24.70;99.90;;;;;;5093994;28;20684;-64
2022/07/31 10:15:11;;;;;;;0.57;0.57;;;24.80;99.90;;;;;;5093709;28;20231;-64
2022/07/31 10:18:02;;;;;;;1.10;1.05;;;24.80;99.90;;;;;;5093794;28;20257;-65
2022/07/31 10:20:54;;;;;;;0.50;0.50;;;24.80;99.90;;;;;;5094217;28;20220;-64
2022/07/31 10:23:46;;;;;;;0.57;0.57;;;25.00;99.90;;;;;;5093251;28;20196;-64
2022/07/31 10:26:35;;;;;;;0.50;0.50;;;25.20;99.90;;;;;;5094589;28;20297;-63
2022/07/31 10:29:43;;;;;;;0.70;0.70;;;25.30;99.90;;;;;;5093062;28;20279;-71
2022/07/31 10:32:32;;;;;;;1.50;1.40;;;25.30;99.90;;;;;;5094418;28;20250;-66
2022/07/31 10:35:21;;;;;;;1.08;1.08;;;25.40;99.90;;;;;;5095071;28;20246;-66
2022/07/31 10:38:15;;;;;;;0.50;0.50;;;25.60;99.90;;;;;;5094272;28;20208;-64
2022/07/31 10:41:11;;;;;;;0.50;0.50;;;25.50;99.90;;;;;;5092830;28;20227;-67
2022/07/31 10:44:03;;;;;;;0.60;0.60;;;25.70;99.90;;;;;;5092668;28;20680;-66
2022/07/31 10:46:51;;;;;;;1.83;1.73;;;25.90;99.90;;;;;;5094783;28;20583;-66
2022/07/31 10:49:40;;;;;;;0.90;0.80;;;26.00;99.90;;;;;;5093424;28;20330;-64
2022/07/31 10:52:31;;;;;;;0.98;0.63;;;26.00;99.90;;;;;;5093502;28;20277;-65
2022/07/31 10:55:24;;;;;;;2.15;2.05;;;26.20;99.90;;;;;;5092567;28;20600;-65
2022/07/31 10:58:14;;;;;;;0.50;0.50;;;26.60;99.90;;;;;;5075632;28;20254;-66
2022/07/31 11:01:06;;;;;;;3.25;2.30;;;26.50;99.90;;;;;;5073026;28;20221;-66
2022/07/31 11:04:00;;;;;;;0.40;0.40;;;26.50;99.90;;;;;;5073117;28;20207;-64
2022/07/31 11:06:50;;;;;;;1.02;1.02;;;26.20;99.90;;;;;;5072869;28;20212;-65
2022/07/31 11:09:40;;;;;;;0.40;0.40;;;26.00;99.90;;;;;;5071941;28;20203;-64
2022/07/31 11:12:38;;;;;;;2.92;0.70;;;25.90;99.90;;;;;;5070999;28;20205;-63
2022/07/31 11:15:26;;;;;;;0.40;0.40;;;25.80;99.90;;;;;;5072053;28;20291;-66
2022/07/31 11:18:16;;;;;;;0.50;0.50;;;25.80;99.90;;;;;;5072905;28;20208;-65
2022/07/31 11:21:14;;;;;;;0.40;0.40;;;26.10;99.90;;;;;;5071612;28;20220;-64
2022/07/31 11:24:23;;;;;;;0.95;0.95;;;26.50;99.90;;;;;;5071278;28;20686;-64
2022/07/31 11:27:12;;;;;;;0.75;0.75;;;27.20;99.90;;;;;;5071689;28;20197;-65
2022/07/31 11:30:06;;;;;;;0.95;0.90;;;27.40;99.90;;;;;;5071645;28;20256;-65
2022/07/31 11:33:00;;;;;;;0.63;0.63;;;27.30;99.90;;;;;;5071527;28;20487;-65
2022/07/31 11:35:48;;;;;;;0.77;0.77;;;27.00;99.90;;;;;;5072150;28;20216;-65
2022/07/31 11:38:37;;;;;;;1.10;1.10;;;26.90;99.90;;;;;;5072531;28;20207;-65
2022/07/31 11:41:29;;;;;;;0.55;0.55;;;27.00;99.90;;;;;;5071628;28;20224;-65
2022/07/31 11:44:30;;;;;;;0.70;0.70;;;27.10;99.90;;;;;;5073496;28;20668;-65
2022/07/31 11:47:18;;;;;;;0.40;0.40;;;27.20;99.70;;;;;;5072033;28;20204;-65
2022/07/31 11:50:29;;;;;;;0.50;0.50;;;27.30;99.60;;;;;;5071462;28;20764;-65
2022/07/31 11:53:18;;;;;;;0.88;0.77;;;27.70;99.00;;;;;;5072409;28;20211;-65
2022/07/31 11:56:07;;;;;;;0.50;0.50;;;28.00;97.60;;;;;;5072637;28;20297;-65
2022/07/31 11:58:56;;;;;;;0.98;0.88;;;27.80;97.90;;;;;;5093135;28;20203;-65
2022/07/31 12:01:46;;;;;;;0.40;0.40;;;27.50;97.50;;;;;;5092376;28;20226;-65
2022/07/31 12:04:36;;;;;;;0.40;0.40;;;27.40;97.50;;;;;;5092595;28;20741;-65
2022/07/31 12:07:24;;;;;;;0.60;0.60;;;27.30;97.50;;;;;;5094407;28;20189;-65
2022/07/31 12:10:13;;;;;;;0.60;0.57;;;27.40;97.40;;;;;;5092209;28;20249;-65
2022/07/31 12:13:02;;;;;;;0.40;0.40;;;27.30;96.90;;;;;;5093971;28;20612;-65
2022/07/31 12:15:55;;;;;;;0.40;0.40;;;27.40;97.10;;;;;;5092604;28;20219;-64
2022/07/31 12:18:49;;;;;;;0.47;0.47;;;27.70;96.60;;;;;;5093920;28;20218;-65
2022/07/31 12:21:39;;;;;;;0.40;0.40;;;27.90;95.70;;;;;;5092184;28;20220;-64
2022/07/31 12:24:27;;;;;;;0.40;0.40;;;27.80;95.30;;;;;;5093722;28;20693;-64
2022/07/31 12:27:17;;;;;;;0.40;0.40;;;27.90;94.70;;;;;;5093254;28;20193;-64
2022/07/31 12:30:16;;;;;;;0.40;0.40;;;28.10;94.50;;;;;;5095519;28;20220;-63
2022/07/31 12:33:06;;;;;;;1.35;1.20;;;28.10;93.70;;;;;;5096155;28;20245;-65
2022/07/31 12:35:55;;;;;;;1.48;0.95;;;27.80;93.60;;;;;;5096215;28;20688;-64
2022/07/31 12:38:44;;;;;;;0.95;0.93;;;27.60;94.00;;;;;;5097850;28;20192;-65
2022/07/31 12:41:41;;;;;;;0.75;0.75;;;27.80;93.20;;;;;;5097309;28;20216;-65
2022/07/31 12:44:30;;;;;;;0.50;0.50;;;27.60;92.90;;;;;;5096139;28;20211;-65
2022/07/31 12:47:21;;;;;;;0.80;0.80;;;27.80;92.70;;;;;;5095446;28;20192;-64
2022/07/31 12:50:13;;;;;;;0.90;0.90;;;28.00;92.50;;;;;;5095629;28;20216;-64
2022/07/31 12:53:04;;;;;;;1.15;1.15;;;28.10;92.10;;;;;;5095964;28;20622;-63
2022/07/31 12:55:52;;;;;;;0.60;0.60;;;29.10;91.60;;;;;;5097109;28;20196;-63
2022/07/31 12:58:40;;;;;;;1.08;1.05;;;30.90;89.50;;;;;;5079038;28;20193;-64
2022/07/31 13:01:28;;;;;;;0.40;0.40;;;32.80;83.80;;;;;;5077406;28;20712;-64
2022/07/31 13:04:16;;;;;;;1.30;1.20;;;34.00;74.40;;;;;;5075290;28;20351;-65
2022/07/31 13:07:07;;;;;;;0.50;0.50;;;35.10;69.40;;;;;;5074865;28;20192;-64
2022/07/31 13:09:56;;;;;;;0.40;0.40;;;35.60;65.80;;;;;;5075229;28;20232;-64
2022/07/31 13:13:05;;;;;;;0.55;0.55;;;36.80;61.00;;;;;;5075459;28;20274;-64
2022/07/31 13:15:53;;;;;;;0.40;0.40;;;37.60;58.40;;;;;;5076243;28;20203;-64
2022/07/31 13:18:41;;;;;;;0.40;0.40;;;38.60;57.20;;;;;;5073902;28;20278;-65
2022/07/31 13:21:29;;;;;;;0.60;0.60;;;40.20;53.10;;;;;;5074388;28;20286;-64
2022/07/31 13:24:35;;;;;;;0.60;0.60;;;41.30;50.70;;;;;;5076184;28;20785;-64
2022/07/31 13:27:24;;;;;;;1.10;1.10;;;41.40;48.80;;;;;;5075872;28;20189;-65
2022/07/31 13:30:13;;;;;;;0.40;0.40;;;40.70;48.10;;;;;;5075515;28;20258;-64
2022/07/31 13:33:01;;;;;;;0.40;0.40;;;37.60;49.20;;;;;;5073978;28;20205;-64
2022/07/31 13:35:49;;;;;;;0.90;0.90;;;35.00;53.10;;;;;;5074503;28;20197;-63
2022/07/31 13:38:37;;;;;;;1.30;1.30;;;33.20;55.80;;;;;;5075121;28;20204;-66
2022/07/31 13:41:29;;;;;;;0.70;0.70;;;31.60;59.10;;;;;;5073410;28;20220;-64
2022/07/31 13:44:19;;;;;;;0.98;0.98;;;30.40;62.30;;;;;;5073322;28;20660;-63
2022/07/31 13:47:08;;;;;;;0.50;0.50;;;29.50;64.50;;;;;;5075400;28;20189;-63
2022/07/31 13:49:56;;;;;;;1.30;1.25;;;29.50;66.00;;;;;;5074621;28;20273;-63
2022/07/31 13:52:44;;;;;;;1.85;0.73;;;30.30;65.40;;;;;;5074735;28;20208;-63
2022/07/31 13:55:32;;;;;;;3.60;0.70;;;32.90;60.40;;;;;;5073133;28;20298;-64
2022/07/31 13:58:20;;;;;;;0.47;0.47;;;35.40;56.20;;;;;;5092165;28;20592;-64
2022/07/31 14:01:10;;;;;;;0.60;0.60;;;37.60;53.30;;;;;;5092738;28;20316;-64
2022/07/31 14:03:58;;;;;;;0.47;0.47;;;39.30;51.00;;;;;;5094760;28;20541;-65
2022/07/31 14:06:47;;;;;;;1.48;1.38;;;38.30;49.50;;;;;;5092613;28;20227;-64
2022/07/31 14:09:36;;;;;;;0.40;0.40;;;37.00;51.80;;;;;;5093166;28;20289;-64
2022/07/31 14:12:24;;;;;;;0.55;0.55;;;35.50;53.30;;;;;;5092817;28;20200;-64
2022/07/31 14:15:12;;;;;;;0.40;0.40;;;34.80;54.40;;;;;;5093443;28;20676;-64
2022/07/31 14:18:02;;;;;;;0.50;0.50;;;34.10;55.20;;;;;;5093193;28;20695;-64
2022/07/31 14:20:55;;;;;;;0.40;0.40;;;33.90;55.30;;;;;;5092364;28;20806;-64
2022/07/31 14:23:43;;;;;;;0.40;0.40;;;34.20;54.80;;;;;;5093613;28;20200;-64
2022/07/31 14:26:31;;;;;;;0.50;0.50;;;34.60;54.70;;;;;;5092699;28;20200;-64
2022/07/31 14:29:19;;;;;;;0.80;0.80;;;36.80;52.20;;;;;;5092896;28;20207;-64
2022/07/31 14:32:07;;;;;;;0.40;0.40;;;39.00;49.40;;;;;;5093332;28;20235;-63
2022/07/31 14:34:57;;;;;;;0.40;0.40;;;40.20;48.50;;;;;;5091936;28;20196;-64
2022/07/31 14:37:46;;;;;;;0.60;0.60;;;40.80;46.40;;;;;;5092758;28;20293;-65
2022/07/31 14:40:34;;;;;;;0.50;0.50;;;40.20;45.90;;;;;;5092822;28;20727;-64
2022/07/31 14:43:22;;;;;;;0.50;0.50;;;38.00;47.20;;;;;;5092823;28;20672;-64
2022/07/31 14:46:10;;;;;;;0.60;0.60;;;36.70;49.00;;;;;;5094258;28;20411;-63
2022/07/31 14:49:00;;;;;;;0.40;0.40;;;35.90;49.90;;;;;;5092469;28;20281;-64
2022/07/31 14:51:50;;;;;;;0.40;0.40;;;35.00;51.10;;;;;;5092424;28;20308;-64
2022/07/31 14:54:38;;;;;;;1.10;1.10;;;35.00;50.70;;;;;;5094190;28;20215;-64